createdAt,value
2016-07-21T12:42:16.706Z,24.88
2016-07-21T12:43:16.734Z,24.73
2016-07-21T12:44:17.835Z,24.84
2016-07-21T12:45:16.921Z,24.73
2016-07-21T12:46:16.020Z,24.62
2016-07-21T12:47:30.917Z,24.6
2016-07-21T12:48:16.095Z,24.5
2016-07-21T12:49:17.359Z,24.46
2016-07-21T12:50:16.480Z,24.34
2016-07-21T12:51:16.251Z,24.34
2016-07-21T12:52:17.793Z,24.25
2016-07-21T12:53:16.560Z,24.22
2016-07-21T12:54:16.696Z,24.16
2016-07-21T12:55:16.463Z,24.13
2016-07-21T12:56:16.545Z,24.05
2016-07-21T12:57:16.519Z,23.97
2016-07-21T12:58:16.529Z,24
2016-07-21T12:59:17.427Z,23.98
2016-07-21T13:00:16.679Z,23.88
2016-07-21T13:01:16.366Z,23.91
2016-07-21T13:02:16.466Z,23.84
2016-07-21T13:03:16.497Z,23.85
2016-07-21T13:04:16.949Z,23.85
2016-07-21T13:05:16.533Z,23.79
2016-07-21T13:06:17.491Z,23.8
2016-07-21T13:07:16.370Z,23.73
2016-07-21T13:08:16.342Z,23.65
2016-07-21T13:09:16.410Z,23.65
2016-07-21T13:10:16.844Z,23.6
2016-07-21T13:11:16.424Z,23.65
2016-07-21T13:12:16.538Z,23.65
2016-07-21T13:13:17.218Z,23.51
2016-07-21T13:14:16.616Z,23.55
2016-07-21T13:15:16.550Z,23.54
2016-07-21T13:16:33.072Z,23.57
2016-07-21T13:17:19.257Z,23.57
2016-07-21T13:20:18.478Z,23.46
2016-07-21T13:21:32.307Z,23.53
2016-07-21T13:22:19.168Z,23.39
2016-07-21T13:25:35.101Z,23.33
2016-07-21T13:27:20.266Z,23.42
2016-07-21T13:28:34.018Z,23.43
2016-07-21T13:29:33.074Z,23.39
2016-07-21T13:30:34.541Z,23.32
2016-07-21T13:31:33.699Z,23.39
2016-07-21T13:32:34.324Z,23.27
2016-07-21T13:33:17.036Z,23.32
2016-07-21T13:34:19.334Z,23.38
2016-07-21T13:35:19.123Z,23.36
2016-07-21T13:36:39.084Z,23.39
2016-07-21T13:37:32.106Z,23.36
2016-07-21T13:39:19.243Z,23.35
2016-07-21T13:40:17.508Z,23.38
2016-07-21T13:41:16.784Z,23.43
2016-07-21T13:42:17.580Z,23.33
2016-07-21T13:43:32.476Z,23.46
2016-07-21T13:44:32.832Z,23.42
2016-07-21T13:45:17.519Z,23.47
2016-07-21T13:46:17.255Z,23.35
2016-07-21T13:47:33.549Z,23.4
2016-07-21T13:48:18.472Z,23.5
2016-07-21T13:49:19.879Z,23.39
2016-07-21T13:50:18.458Z,23.43
2016-07-21T13:51:19.071Z,23.53
2016-07-21T13:52:32.532Z,23.54
2016-07-21T13:53:17.221Z,23.55
2016-07-21T13:54:34.602Z,23.55
2016-07-21T13:55:35.055Z,23.66
2016-07-21T13:56:32.827Z,23.63
2016-07-21T13:57:17.352Z,23.58
2016-07-21T14:00:18.809Z,23.6
2016-07-21T14:01:34.017Z,23.63
